^^
B2 Weather Station Historical Data
Daily Summary for June 22, 2019 Units:  English    Metric   Both
Daily Weekly Monthly Yearly Custom
  High: Low: Average:
Temperature: 78.2 °F 59.5 °F 69.9 °F
Dew Point: 70.7 °F 56.4 °F 65.1 °F
Humidity: 94% 74% 85%
Wind Speed: 18.4mph 0mph 6mph
Wind Gust: 13.6mph - -
Wind- - ESE
Pressure: 30.04 in 29.91 in -
Precipitation: 0 in    
Historical Graphs
 
 
Tabular Data for June 22, 2019
Time Temperature Dew Point Pressure Wind Wind Speed Wind Gust Humidity Rainfall Rate (Hourly) solar
00:04 59.6 °F 56.4 °F 29.95 in Calm     89% 0 in 0.00 W/m2
00:09 59.7 °F 56.5 °F 29.95 in NNE 3.5 mph 0.4 mph 89% 0 in 0.00 W/m2
00:14 59.7 °F 56.8 °F 29.95 in Calm     90% 0 in 0.00 W/m2
00:19 59.8 °F 56.9 °F 29.94 in Calm     90% 0 in 0.00 W/m2
00:24 59.7 °F 56.8 °F 29.94 in NE 2.3 mph 0.1 mph 90% 0 in 0.00 W/m2
00:29 59.7 °F 56.8 °F 29.94 in NE 3.5 mph 0.2 mph 90% 0 in 0.00 W/m2
00:34 59.8 °F 56.9 °F 29.93 in Calm   0.3 mph 90% 0 in 0.00 W/m2
00:39 59.7 °F 56.8 °F 29.93 in NE 3.5 mph 0.2 mph 90% 0 in 0.00 W/m2
00:44 59.7 °F 56.8 °F 29.93 in Calm     90% 0 in 0.00 W/m2
00:49 59.7 °F 56.8 °F 29.93 in NE 4.6 mph 0.3 mph 90% 0 in 0.00 W/m2
00:54 59.7 °F 56.8 °F 29.94 in Calm     90% 0 in 0.00 W/m2
00:59 59.8 °F 57.2 °F 29.94 in Calm   0.1 mph 91% 0 in 0.00 W/m2
01:04 59.9 °F 57.3 °F 29.94 in NE 1.2 mph 0.2 mph 91% 0 in 0.00 W/m2
01:09 59.9 °F 57.3 °F 29.94 in Calm     91% 0 in 0.00 W/m2
01:14 59.9 °F 57.3 °F 29.94 in ENE 3 mph 0.2 mph 91% 0 in 0.00 W/m2
01:19 59.9 °F 57.3 °F 29.94 in ENE 3.5 mph   91% 0 in 0.00 W/m2
01:24 60 °F 57.4 °F 29.93 in ENE 4 mph 1.7 mph 91% 0 in 0.00 W/m2
01:29 60 °F 57.4 °F 29.93 in ENE 1.2 mph   91% 0 in 0.00 W/m2
01:34 60 °F 57.4 °F 29.94 in NE 3.5 mph   91% 0 in 0.00 W/m2
01:39 60 °F 57.4 °F 29.94 in Calm     91% 0 in 0.00 W/m2
01:44 60 °F 57.7 °F 29.94 in Calm     92% 0 in 0.00 W/m2
01:49 60 °F 57.7 °F 29.94 in Calm     92% 0 in 0.00 W/m2
01:54 60.1 °F 57.8 °F 29.95 in Calm     92% 0 in 0.00 W/m2
01:59 60.1 °F 57.8 °F 29.95 in Calm     92% 0 in 0.00 W/m2
02:04 60.1 °F 57.8 °F 29.96 in Calm     92% 0 in 0.00 W/m2
02:09 60.1 °F 57.8 °F 29.96 in Calm     92% 0 in 0.00 W/m2
02:14 60.1 °F 57.8 °F 29.96 in Calm     92% 0 in 0.00 W/m2
02:19 60.1 °F 57.8 °F 29.96 in Calm     92% 0 in 0.00 W/m2
02:25 60.2 °F 57.9 °F 29.96 in Calm     92% 0 in 0.00 W/m2
02:29 60.2 °F 58.2 °F 29.95 in Calm     93% 0 in 0.00 W/m2
02:34 60.2 °F 58.2 °F 29.95 in Calm     93% 0 in 0.00 W/m2
02:39 60.2 °F 58.2 °F 29.95 in Calm   0.4 mph 93% 0 in 0.00 W/m2
02:44 60.1 °F 58.1 °F 29.95 in NE 2 mph 0.1 mph 93% 0 in 0.00 W/m2
02:50 60 °F 58 °F 29.95 in Calm     93% 0 in 0.00 W/m2
02:54 59.9 °F 57.9 °F 29.94 in Calm   0.7 mph 93% 0 in 0.00 W/m2
02:59 59.8 °F 57.8 °F 29.94 in Calm     93% 0 in 0.00 W/m2
03:04 59.6 °F 57.6 °F 29.94 in Calm   0.1 mph 93% 0 in 0.00 W/m2
03:09 59.6 °F 57.6 °F 29.94 in NE 2.3 mph   93% 0 in 0.00 W/m2
03:14 59.5 °F 57.5 °F 29.94 in NE 2.3 mph 0.2 mph 93% 0 in 0.00 W/m2
03:19 59.6 °F 57.6 °F 29.94 in Calm     93% 0 in 0.00 W/m2
03:24 59.6 °F 57.6 °F 29.94 in NE 3 mph 0.2 mph 93% 0 in 0.00 W/m2
03:29 59.7 °F 57.7 °F 29.94 in Calm     93% 0 in 0.00 W/m2
03:34 59.6 °F 57.6 °F 29.94 in NE 1.2 mph   93% 0 in 0.00 W/m2
03:39 59.6 °F 57.6 °F 29.93 in Calm   0.1 mph 93% 0 in 0.00 W/m2
03:44 59.5 °F 57.5 °F 29.93 in Calm     93% 0 in 0.00 W/m2
03:49 59.5 °F 57.8 °F 29.93 in ENE 2 mph 1.1 mph 94% 0 in 0.00 W/m2
03:54 59.5 °F 57.8 °F 29.92 in ENE 3.5 mph 0.3 mph 94% 0 in 0.00 W/m2
03:59 59.5 °F 57.8 °F 29.92 in ENE 3.5 mph 2.1 mph 94% 0 in 0.00 W/m2
04:04 59.6 °F 57.9 °F 29.92 in ENE 1.2 mph 0.5 mph 94% 0 in 0.00 W/m2
04:09 59.7 °F 58 °F 29.92 in NE 4.6 mph 0.5 mph 94% 0 in 0.00 W/m2
04:14 59.9 °F 58.2 °F 29.92 in ENE 8.1 mph 4.6 mph 94% 0 in 0.00 W/m2
04:19 60.1 °F 58.4 °F 29.93 in ENE 3.5 mph 2 mph 94% 0 in 0.00 W/m2
04:24 60.2 °F 58.5 °F 29.93 in ENE 6.9 mph 1.5 mph 94% 0 in 0.00 W/m2
04:29 60.3 °F 58.6 °F 29.93 in ENE 3.5 mph 1.9 mph 94% 0 in 0.00 W/m2
04:34 60.5 °F 58.8 °F 29.93 in East 3.5 mph 1.9 mph 94% 0 in 0.00 W/m2
04:39 60.7 °F 59 °F 29.94 in East 5.8 mph 3.4 mph 94% 0 in 0.00 W/m2
04:44 61.2 °F 59.5 °F 29.94 in ESE 3 mph 0.3 mph 94% 0 in 0.00 W/m2
04:49 61.5 °F 59.8 °F 29.94 in East 7 mph 5.7 mph 94% 0 in 0.00 W/m2
04:54 61.8 °F 60.1 °F 29.95 in East 3.5 mph 2.2 mph 94% 0 in 0.00 W/m2
04:59 62.1 °F 60.1 °F 29.95 in ENE 3.5 mph 1 mph 93% 0 in 0.00 W/m2
05:04 62.3 °F 60.2 °F 29.97 in Calm     93% 0 in 0.00 W/m2
05:09 62.4 °F 60.3 °F 29.98 in East 6.9 mph 2.8 mph 93% 0 in 0.00 W/m2
05:14 62.5 °F 60.4 °F 29.98 in East 3.5 mph 1.2 mph 93% 0 in 0.00 W/m2
05:19 62.6 °F 60.5 °F 29.98 in East 3.5 mph 4.1 mph 93% 0 in 0.00 W/m2
05:24 62.6 °F 60.5 °F 29.97 in East 8.1 mph 4.3 mph 93% 0 in 0.00 W/m2
05:29 62.6 °F 60.5 °F 29.98 in ENE 6.9 mph 2.3 mph 93% 0 in 0.00 W/m2
05:34 62.6 °F 60.5 °F 29.98 in East 4.6 mph 2.7 mph 93% 0 in 0.00 W/m2
05:39 62.5 °F 60.4 °F 29.97 in East 3.5 mph 1.4 mph 93% 0 in 0.00 W/m2
05:44 62.4 °F 60.3 °F 29.97 in Calm   0.5 mph 93% 0 in 5.00 W/m2
05:49 62.3 °F 60.2 °F 29.96 in ESE 3.5 mph 2.4 mph 93% 0 in 5.00 W/m2
05:54 62.3 °F 60.2 °F 29.96 in ESE 3.5 mph 2.6 mph 93% 0 in 9.00 W/m2
05:59 62.4 °F 60.3 °F 29.97 in ESE 9.2 mph 3.2 mph 93% 0 in 12.00 W/m2
06:04 62.5 °F 60.4 °F 29.97 in East 3.5 mph 1.5 mph 93% 0 in 18.00 W/m2
06:09 62.7 °F 60.6 °F 29.97 in East 8.1 mph 2.6 mph 93% 0 in 19.00 W/m2
06:14 62.7 °F 60.6 °F 29.97 in East 2.3 mph   93% 0 in 23.00 W/m2
06:19 62.8 °F 60.7 °F 29.97 in ESE 4.6 mph 2.8 mph 93% 0 in 32.00 W/m2
06:24 62.9 °F 60.8 °F 29.96 in Calm   0.1 mph 93% 0 in 35.00 W/m2
06:29 62.9 °F 60.8 °F 29.96 in ESE 3.5 mph 3.2 mph 93% 0 in 35.00 W/m2
06:34 63 °F 60.9 °F 29.96 in East 5.8 mph 2.1 mph 93% 0 in 35.00 W/m2
06:39 63.1 °F 61 °F 29.96 in ESE 3.5 mph 0.4 mph 93% 0 in 42.00 W/m2
06:44 63.2 °F 61.1 °F 29.96 in ESE 5.8 mph 1.1 mph 93% 0 in 51.00 W/m2
06:49 63.3 °F 61.2 °F 29.96 in ESE 3.5 mph 0.6 mph 93% 0 in 63.00 W/m2
06:54 63.5 °F 61.4 °F 29.97 in East 3.5 mph 1.1 mph 93% 0 in 74.00 W/m2
06:59 63.7 °F 61.6 °F 29.97 in ESE 2.3 mph 0.9 mph 93% 0 in 84.00 W/m2
07:04 64 °F 61.9 °F 29.97 in East 4.6 mph 1.9 mph 93% 0 in 97.00 W/m2
07:09 64.2 °F 61.8 °F 29.97 in East 6.9 mph 5.8 mph 92% 0 in 130.00 W/m2
07:14 64.6 °F 62.5 °F 29.98 in ENE 5 mph 4.4 mph 93% 0 in 151.00 W/m2
07:19 65 °F 62.6 °F 29.97 in East 8.1 mph 3.5 mph 92% 0 in 128.00 W/m2
07:24 65.2 °F 62.5 °F 29.98 in ESE 5.8 mph 1.5 mph 91% 0 in 125.00 W/m2
07:29 65.4 °F 62.7 °F 29.98 in East 6.9 mph 2.2 mph 91% 0 in 123.00 W/m2
07:34 65.6 °F 62.9 °F 29.98 in East 8.1 mph 3.8 mph 91% 0 in 127.00 W/m2
07:39 65.8 °F 63.1 °F 29.98 in East 9.2 mph 5.4 mph 91% 0 in 160.00 W/m2
07:44 66 °F 63.3 °F 29.98 in ESE 9.2 mph 5.3 mph 91% 0 in 155.00 W/m2
07:49 66.4 °F 63.7 °F 29.98 in East 9.2 mph 5.1 mph 91% 0 in 176.00 W/m2
07:54 66.8 °F 64.1 °F 29.98 in ESE 4.6 mph 3.5 mph 91% 0 in 156.00 W/m2
07:59 67.2 °F 64.2 °F 29.98 in East 9.2 mph 6.6 mph 90% 0 in 427.00 W/m2
08:05 68.3 °F 65.3 °F 29.97 in East 6.9 mph 4 mph 90% 0 in 443.00 W/m2
08:09 69.3 °F 65.9 °F 29.97 in ESE 6.9 mph 4.9 mph 89% 0 in 446.00 W/m2
08:14 69.9 °F 65.9 °F 29.97 in ESE 10.4 mph 7.5 mph 87% 0 in 441.00 W/m2
08:19 70.1 °F 66 °F 29.97 in ESE 8.1 mph 5 mph 87% 0 in 450.00 W/m2
08:24 70.5 °F 66.4 °F 29.97 in East 11.5 mph 6.1 mph 87% 0 in 468.00 W/m2
08:29 70.8 °F 66.1 °F 29.97 in ESE 11.5 mph 6.5 mph 85% 0 in 461.00 W/m2
08:34 71.3 °F 66.9 °F 29.96 in ESE 10 mph 5.4 mph 86% 0 in 434.00 W/m2
08:39 71.5 °F 66.4 °F 29.96 in East 11.5 mph 7.5 mph 84% 0 in 427.00 W/m2
08:44 71.6 °F 66.5 °F 29.96 in ESE 10.4 mph 5.6 mph 84% 0 in 448.00 W/m2
08:49 71.9 °F 66.8 °F 29.96 in East 8.1 mph 7.2 mph 84% 0 in 431.00 W/m2
08:54 72.1 °F 66.6 °F 29.97 in East 9.2 mph 7.4 mph 83% 0 in 404.00 W/m2
08:59 72.3 °F 67.2 °F 29.98 in East 11.5 mph 5.8 mph 84% 0 in 355.00 W/m2
09:04 72.1 °F 66.3 °F 29.97 in East 12.7 mph 7.7 mph 82% 0 in 367.00 W/m2
09:09 72.2 °F 66.7 °F 29.98 in East 6.9 mph 5.5 mph 83% 0 in 390.00 W/m2
09:14 72.2 °F 66.7 °F 29.98 in East 9.2 mph 4.8 mph 83% 0 in 445.00 W/m2
09:20 72.6 °F 67.5 °F 29.98 in ESE 9.2 mph 4.6 mph 84% 0 in 417.00 W/m2
09:24 72.8 °F 67 °F 29.98 in East 11.5 mph 6.4 mph 82% 0 in 411.00 W/m2
09:29 72.8 °F 66.6 °F 29.98 in ESE 11.5 mph 5.5 mph 81% 0 in 446.00 W/m2
09:34 73 °F 67.2 °F 29.98 in ESE 11.5 mph 7.2 mph 82% 0 in 483.00 W/m2
09:40 73 °F 66.8 °F 29.99 in East 7 mph 4.4 mph 81% 0 in 417.00 W/m2
09:44 73 °F 66.8 °F 29.99 in East 10.4 mph 4.9 mph 81% 0 in 473.00 W/m2
09:47 73.1 °F 67.3 °F 29.99 in ESE 9.2 mph 6.2 mph 82% 0 in 415.00 W/m2
09:54 73.1 °F 66.9 °F 29.99 in East 9.2 mph 9.2 mph 81% 0 in 469.00 W/m2
09:59 73.4 °F 67.2 °F 29.99 in ESE 6.9 mph 5.3 mph 81% 0 in 399.00 W/m2
10:04 73.4 °F 67.6 °F 29.99 in East 9 mph 5.7 mph 82% 0 in 418.00 W/m2
10:09 73.6 °F 67.8 °F 29.98 in ESE 10.4 mph 8.9 mph 82% 0 in 487.00 W/m2
10:14 73.9 °F 67.7 °F 29.99 in East 11.5 mph 7.3 mph 81% 0 in 464.00 W/m2
10:20 74.1 °F 67.9 °F 29.98 in East 8.1 mph 5.1 mph 81% 0 in 555.00 W/m2
10:24 74.5 °F 67.9 °F 29.98 in East 12.7 mph 6.2 mph 80% 0 in 617.00 W/m2
10:29 75 °F 69.1 °F 29.98 in ESE 8.1 mph 4.7 mph 82% 0 in 659.00 W/m2
10:34 75.6 °F 69.7 °F 29.98 in East 9.2 mph 4.6 mph 82% 0 in 601.00 W/m2
10:39 76 °F 69 °F 29.98 in ESE 11.5 mph 7.1 mph 79% 0 in 670.00 W/m2
10:44 76.1 °F 68.7 °F 29.98 in ENE 12.7 mph 8.6 mph 78% 0 in 714.00 W/m2
10:50 76.1 °F 68.7 °F 29.99 in ESE 9.2 mph 6.4 mph 78% 0 in 587.00 W/m2
10:54 76.1 °F 69.1 °F 29.99 in ESE 12 mph 6.3 mph 79% 0 in 612.00 W/m2
10:59 76.2 °F 69.6 °F 29.99 in ENE 9 mph 5.1 mph 80% 0 in 710.00 W/m2
11:04 76.1 °F 68.4 °F 29.99 in East 9.2 mph 6.5 mph 77% 0 in 478.00 W/m2
11:09 75.5 °F 67.4 °F 30.00 in ENE 9.2 mph 7.4 mph 76% 0 in 380.00 W/m2
11:14 75.4 °F 68.4 °F 29.99 in ESE 6.9 mph 5 mph 79% 0 in 404.00 W/m2
11:19 75.5 °F 68.2 °F 30.00 in East 9.2 mph 2.6 mph 78% 0 in 336.00 W/m2
11:24 75.4 °F 68.1 °F 30.00 in SE 10.4 mph 5.8 mph 78% 0 in 281.00 W/m2
11:29 75.1 °F 68.1 °F 30.00 in ESE 9.2 mph 5.8 mph 79% 0 in 489.00 W/m2
11:34 75.4 °F 68.4 °F 30.01 in SE 4.6 mph 2.7 mph 79% 0 in 369.00 W/m2
11:39 75.6 °F 68.6 °F 30.01 in ESE 9 mph 5.4 mph 79% 0 in 445.00 W/m2
11:44 75.6 °F 68.3 °F 30.01 in SE 8.1 mph 4.4 mph 78% 0 in 374.00 W/m2
11:50 75.7 °F 68.4 °F 30.01 in ESE 8.1 mph 5.3 mph 78% 0 in 348.00 W/m2
11:54 75.8 °F 68.8 °F 30.01 in SE 8.1 mph 5 mph 79% 0 in 431.00 W/m2
11:59 76.1 °F 69.1 °F 30.01 in ESE 8.1 mph 3.6 mph 79% 0 in 547.00 W/m2
12:04 76.3 °F 68.9 °F 30.01 in SE 9.2 mph 5.4 mph 78% 0 in 396.00 W/m2
12:09 76.1 °F 68.4 °F 30.01 in North 9.2 mph 6.1 mph 77% 0 in 424.00 W/m2
12:14 76 °F 67.9 °F 30.01 in SE 11.5 mph 7.6 mph 76% 0 in 422.00 W/m2
12:19 76 °F 68.3 °F 30.02 in ESE 6.9 mph 4.1 mph 77% 0 in 369.00 W/m2
12:24 76.1 °F 69.1 °F 30.02 in North 9.2 mph 4.3 mph 79% 0 in 446.00 W/m2
12:29 76.5 °F 69.1 °F 30.02 in SE 11.5 mph 7 mph 78% 0 in 483.00 W/m2
12:34 76.6 °F 68.8 °F 30.02 in SE 11.5 mph 6.4 mph 77% 0 in 434.00 W/m2
12:40 76.7 °F 69.3 °F 30.02 in SE 9.2 mph 6 mph 78% 0 in 499.00 W/m2
12:44 76.8 °F 69.4 °F 30.02 in ESE 6.9 mph 5.7 mph 78% 0 in 469.00 W/m2
12:49 77 °F 69.6 °F 30.02 in SE 10.4 mph 4.8 mph 78% 0 in 478.00 W/m2
12:54 76.9 °F 68.8 °F 30.02 in ESE 10.4 mph 9.5 mph 76% 0 in 482.00 W/m2
12:59 76.6 °F 69.2 °F 30.03 in SE 9.2 mph 5.5 mph 78% 0 in 369.00 W/m2
13:04 76 °F 68.3 °F 30.03 in SSE 11.5 mph 8.1 mph 77% 0 in 295.00 W/m2
13:10 75.4 °F 67.7 °F 30.03 in SSE 11.5 mph 7.5 mph 77% 0 in 207.00 W/m2
13:14 74.9 °F 67.9 °F 30.03 in SE 10.4 mph 4.9 mph 79% 0 in 269.00 W/m2
13:20 74.8 °F 68.2 °F 30.04 in SSE 11.5 mph 7.2 mph 80% 0 in 211.00 W/m2
13:24 74.5 °F 67.6 °F 30.04 in South 6.9 mph 5.1 mph 79% 0 in 158.00 W/m2
13:29 74.1 °F 67.2 °F 30.04 in South 8.1 mph 5.2 mph 79% 0 in 144.00 W/m2
13:34 73.9 °F 67.7 °F 30.04 in SSE 8 mph 7.2 mph 81% 0 in 146.00 W/m2
13:39 73.6 °F 67 °F 30.04 in SSE 11.5 mph 4.9 mph 80% 0 in 137.00 W/m2
13:44 73.4 °F 67.2 °F 30.04 in SE 8.1 mph 5.4 mph 81% 0 in 128.00 W/m2
13:49 73.3 °F 67.5 °F 30.03 in SSE 10 mph 6.1 mph 82% 0 in 148.00 W/m2
13:54 73.3 °F 67.8 °F 30.03 in SE 6.9 mph 4 mph 83% 0 in 246.00 W/m2
13:59 73.5 °F 68 °F 30.03 in SSE 8.1 mph 6 mph 83% 0 in 200.00 W/m2
14:04 73.4 °F 67.6 °F 30.03 in SSE 11.5 mph 6.7 mph 82% 0 in 237.00 W/m2
14:09 73.5 °F 68 °F 30.03 in SE 8 mph 4.2 mph 83% 0 in 281.00 W/m2
14:14 73.9 °F 68.8 °F 30.02 in SE 9.2 mph 5.2 mph 84% 0 in 348.00 W/m2
14:19 74.1 °F 68.3 °F 30.02 in SE 10.4 mph 3.8 mph 82% 0 in 202.00 W/m2
14:24 74 °F 68.2 °F 30.02 in SE 11.5 mph 9 mph 82% 0 in 262.00 W/m2
14:29 73.9 °F 68.4 °F 30.02 in SE 8.1 mph 5.2 mph 83% 0 in 350.00 W/m2
14:34 74.1 °F 68.6 °F 30.02 in ESE 9.2 mph 4.9 mph 83% 0 in 295.00 W/m2
14:39 74.3 °F 68.8 °F 30.01 in SE 9.2 mph 5.2 mph 83% 0 in 336.00 W/m2
14:44 74.4 °F 68.5 °F 30.01 in ESE 11.5 mph 6.5 mph 82% 0 in 297.00 W/m2
14:49 74.5 °F 69 °F 30.01 in SE 8 mph 5.5 mph 83% 0 in 448.00 W/m2
14:54 74.9 °F 69.4 °F 30.01 in ESE 11.5 mph 5.9 mph 83% 0 in 874.00 W/m2
14:59 75.9 °F 70 °F 30.00 in ESE 11.5 mph 7.3 mph 82% 0 in 780.00 W/m2
15:04 76.3 °F 70 °F 30.00 in SE 9.2 mph 6.2 mph 81% 0 in 780.00 W/m2
15:09 76.7 °F 70.1 °F 30.00 in SE 12.7 mph 6.3 mph 80% 0 in 810.00 W/m2
15:14 77.2 °F 69.8 °F 30.00 in ESE 11.5 mph 7.7 mph 78% 0 in 789.00 W/m2
15:19 77.3 °F 69.9 °F 30.00 in ESE 12 mph 9.1 mph 78% 0 in 773.00 W/m2
15:24 77.1 °F 69.7 °F 30.00 in ESE 13.8 mph 6.3 mph 78% 0 in 752.00 W/m2
15:29 77.3 °F 69.5 °F 29.99 in SE 11.5 mph 8.7 mph 77% 0 in 756.00 W/m2
15:34 77.4 °F 69.6 °F 30.00 in ESE 11.5 mph 9 mph 77% 0 in 731.00 W/m2
15:39 77.5 °F 69.7 °F 30.00 in SE 13.8 mph 8.7 mph 77% 0 in 714.00 W/m2
15:44 77.8 °F 70.4 °F 30.00 in SE 14 mph 8.2 mph 78% 0 in 715.00 W/m2
15:49 77.8 °F 70 °F 29.99 in ESE 13.8 mph 8.5 mph 77% 0 in 707.00 W/m2
15:54 77.7 °F 69.5 °F 29.99 in SE 11.5 mph 8.1 mph 76% 0 in 694.00 W/m2
15:59 78.1 °F 70.7 °F 29.98 in SSE 13 mph 7.8 mph 78% 0 in 679.00 W/m2
16:04 78.2 °F 70.4 °F 29.97 in SE 11.5 mph 8.4 mph 77% 0 in 687.00 W/m2
16:09 78.1 °F 69.9 °F 29.97 in SE 12.7 mph 9.6 mph 76% 0 in 677.00 W/m2
16:14 77.6 °F 69.4 °F 29.95 in ESE 15 mph 7.8 mph 76% 0 in 640.00 W/m2
16:19 77.8 °F 70 °F 29.94 in ESE 11.5 mph 9.9 mph 77% 0 in 640.00 W/m2
16:24 77.9 °F 69.7 °F 29.93 in SE 18.4 mph 11.9 mph 76% 0 in 626.00 W/m2
16:29 77.8 °F 69.6 °F 29.91 in SE 16.1 mph 10.2 mph 76% 0 in 598.00 W/m2
16:34 77.8 °F 69.6 °F 29.92 in ESE 15 mph 7.9 mph 76% 0 in 589.00 W/m2
16:39 77.9 °F 69.3 °F 29.93 in ESE 16.1 mph 9.5 mph 75% 0 in 554.00 W/m2
16:44 77.8 °F 68.8 °F 29.93 in SE 17 mph 13.6 mph 74% 0 in 580.00 W/m2
16:49 77.8 °F 69.2 °F 29.93 in SE 18.4 mph 10.9 mph 75% 0 in 561.00 W/m2
16:54 77.7 °F 68.7 °F 29.93 in ESE 13.8 mph 10.8 mph 74% 0 in 547.00 W/m2
16:59 77.7 °F 69.1 °F 29.93 in ESE 13.8 mph 13.4 mph 75% 0 in 534.00 W/m2
17:04 77.8 °F 69.6 °F 29.93 in SE 12.7 mph 8.2 mph 76% 0 in 494.00 W/m2
17:09 78 °F 69.4 °F 29.94 in ESE 11.5 mph 8.4 mph 75% 0 in 478.00 W/m2
17:14 78.2 °F 69.6 °F 29.94 in SE 14 mph 8.1 mph 75% 0 in 466.00 W/m2
17:19 78.2 °F 69.6 °F 29.94 in ESE 11.5 mph 7.8 mph 75% 0 in 464.00 W/m2
17:24 78.1 °F 69.5 °F 29.95 in SE 12.7 mph 10.2 mph 75% 0 in 462.00 W/m2
17:29 77.9 °F 69.3 °F 29.95 in SE 11.5 mph 5 mph 75% 0 in 432.00 W/m2
17:34 77.8 °F 69.2 °F 29.95 in ESE 10.4 mph 6.2 mph 75% 0 in 142.00 W/m2
17:39 77.8 °F 69.2 °F 29.96 in ESE 11.5 mph 3.7 mph 75% 0 in 415.00 W/m2
17:44 78 °F 69.8 °F 29.96 in SE 10.4 mph 6.1 mph 76% 0 in 390.00 W/m2
17:49 77.9 °F 68.9 °F 29.96 in SE 11.5 mph 6.9 mph 74% 0 in 392.00 W/m2
17:54 77.9 °F 69.3 °F 29.97 in SE 8 mph 4.9 mph 75% 0 in 123.00 W/m2
17:59 77.5 °F 69.3 °F 29.98 in SE 7 mph 7.1 mph 76% 0 in 380.00 W/m2
18:04 77.6 °F 69.4 °F 29.99 in SSE 10.4 mph 7.1 mph 76% 0 in 355.00 W/m2
18:09 77.9 °F 70.1 °F 29.98 in SE 6.9 mph 3.1 mph 77% 0 in 362.00 W/m2
18:14 78.1 °F 69.5 °F 29.99 in SE 6.9 mph 3.5 mph 75% 0 in 276.00 W/m2
18:19 77.8 °F 69.2 °F 29.99 in SE 4.6 mph 3.1 mph 75% 0 in 107.00 W/m2
18:24 77.5 °F 69.3 °F 29.99 in SE 4.6 mph 2.1 mph 76% 0 in 294.00 W/m2
18:29 77.2 °F 69.4 °F 29.99 in ESE 4.6 mph 1.8 mph 77% 0 in 114.00 W/m2
18:34 76.7 °F 68.9 °F 29.99 in SE 6.9 mph 0.9 mph 77% 0 in 76.00 W/m2
18:39 76.4 °F 68.7 °F 29.99 in SE 4.6 mph 2.3 mph 77% 0 in 67.00 W/m2
18:44 76 °F 68.6 °F 29.99 in Calm     78% 0 in 74.00 W/m2
18:49 75.8 °F 68.8 °F 29.99 in Calm     79% 0 in 74.00 W/m2
18:54 75.8 °F 69.2 °F 29.99 in Calm     80% 0 in 81.00 W/m2
18:59 75.8 °F 68.8 °F 29.99 in Calm     79% 0 in 60.00 W/m2
19:04 75.8 °F 69.2 °F 29.99 in Calm     80% 0 in 76.00 W/m2
19:09 75.6 °F 69 °F 29.98 in Calm     80% 0 in 25.00 W/m2
19:14 75.5 °F 69.3 °F 29.98 in Calm     81% 0 in 51.00 W/m2
19:19 75.3 °F 68.7 °F 29.98 in Calm     80% 0 in 46.00 W/m2
19:24 75.2 °F 69 °F 29.97 in Calm     81% 0 in 54.00 W/m2
19:29 75.1 °F 68.9 °F 29.97 in Calm     81% 0 in 93.00 W/m2
19:34 75 °F 69.1 °F 29.96 in Calm     82% 0 in 70.00 W/m2
19:39 74.9 °F 69 °F 29.96 in Calm     82% 0 in 69.00 W/m2
19:44 74.8 °F 68.9 °F 29.96 in Calm     82% 0 in 70.00 W/m2
19:49 74.6 °F 68.7 °F 29.96 in Calm     82% 0 in 63.00 W/m2
19:54 74.6 °F 69.1 °F 29.96 in Calm     83% 0 in 32.00 W/m2
19:59 74.4 °F 68.9 °F 29.96 in Calm     83% 0 in 26.00 W/m2
20:04 74.2 °F 68.7 °F 29.96 in Calm     83% 0 in 21.00 W/m2
20:09 73.9 °F 68.8 °F 29.96 in Calm     84% 0 in 19.00 W/m2
20:14 73.5 °F 68.4 °F 29.96 in Calm     84% 0 in 16.00 W/m2
20:19 73.1 °F 68 °F 29.96 in Calm     84% 0 in 11.00 W/m2
20:24 72.8 °F 68 °F 29.95 in Calm     85% 0 in 9.00 W/m2
20:29 72.4 °F 67.6 °F 29.95 in Calm     85% 0 in 0.00 W/m2
20:34 72.1 °F 67.7 °F 29.95 in Calm     86% 0 in 0.00 W/m2
20:39 71.7 °F 67.6 °F 29.96 in Calm     87% 0 in 0.00 W/m2
20:44 71.4 °F 67.3 °F 29.96 in Calm     87% 0 in 0.00 W/m2
20:49 71.1 °F 67 °F 29.96 in Calm     87% 0 in 0.00 W/m2
20:54 70.8 °F 67.1 °F 29.96 in Calm     88% 0 in 0.00 W/m2
20:59 70.6 °F 66.9 °F 29.97 in Calm     88% 0 in 0.00 W/m2
21:04 70.4 °F 67 °F 29.97 in Calm     89% 0 in 0.00 W/m2
21:09 70.1 °F 66.7 °F 29.97 in Calm     89% 0 in 0.00 W/m2
21:14 70 °F 66.6 °F 29.98 in SE 1 mph 1.4 mph 89% 0 in 0.00 W/m2
21:19 69.9 °F 66.8 °F 29.98 in Calm     90% 0 in 0.00 W/m2
21:24 70 °F 66.9 °F 29.98 in Calm     90% 0 in 0.00 W/m2
21:29 70 °F 66.9 °F 29.98 in SE 4.6 mph 2.8 mph 90% 0 in 0.00 W/m2
21:34 70 °F 66.9 °F 29.98 in ESE 3 mph 0.8 mph 90% 0 in 0.00 W/m2
21:39 69.9 °F 66.8 °F 29.98 in SE 5.8 mph 4 mph 90% 0 in 0.00 W/m2
21:44 70.1 °F 66.7 °F 29.98 in SE 4.6 mph 3.6 mph 89% 0 in 0.00 W/m2
21:49 70.1 °F 66.7 °F 29.99 in Calm     89% 0 in 0.00 W/m2
21:54 70 °F 66.6 °F 29.99 in SE 3 mph 0.9 mph 89% 0 in 0.00 W/m2
21:59 69.8 °F 66.4 °F 29.99 in ESE 3 mph 1.2 mph 89% 0 in 0.00 W/m2
22:04 69.6 °F 66.2 °F 29.99 in SE 1.2 mph 0.6 mph 89% 0 in 0.00 W/m2
22:09 69.5 °F 66.4 °F 30.00 in ESE 4.6 mph 1.6 mph 90% 0 in 0.00 W/m2
22:14 69.5 °F 66.4 °F 30.00 in ESE 4.6 mph 3 mph 90% 0 in 0.00 W/m2
22:19 69.6 °F 66.5 °F 30.00 in ESE 7 mph 3.9 mph 90% 0 in 0.00 W/m2
22:24 69.7 °F 66.3 °F 30.00 in ESE 5.8 mph 2.9 mph 89% 0 in 0.00 W/m2
22:29 69.8 °F 66.4 °F 30.00 in SE 4.6 mph 1.6 mph 89% 0 in 0.00 W/m2
22:34 69.7 °F 66.3 °F 30.00 in ESE 7 mph 2.9 mph 89% 0 in 0.00 W/m2
22:39 69.7 °F 66.3 °F 29.99 in SE 4.6 mph 0.2 mph 89% 0 in 0.00 W/m2
22:44 69.6 °F 66.2 °F 29.99 in SE 6.9 mph 1.7 mph 89% 0 in 0.00 W/m2
22:49 69.6 °F 66.2 °F 30.00 in SE 3.5 mph 0.7 mph 89% 0 in 0.00 W/m2
22:54 69.6 °F 66.2 °F 30.00 in SE 3.5 mph 1 mph 89% 0 in 0.00 W/m2
22:59 69.7 °F 66.3 °F 29.99 in SE 3.5 mph 0.4 mph 89% 0 in 0.00 W/m2
23:04 69.6 °F 66.2 °F 30.00 in SE 3 mph 1.1 mph 89% 0 in 0.00 W/m2
23:09 69.6 °F 66.2 °F 29.99 in SE 3.5 mph 0.4 mph 89% 0 in 0.00 W/m2
23:14 69.6 °F 66.2 °F 29.99 in Calm   0.3 mph 89% 0 in 0.00 W/m2
23:19 69.5 °F 66.1 °F 29.98 in SE 3.5 mph 1.4 mph 89% 0 in 0.00 W/m2
23:24 69.4 °F 66 °F 29.98 in SE 5.8 mph 4.1 mph 89% 0 in 0.00 W/m2
23:29 69.3 °F 65.9 °F 29.98 in SE 4 mph 3.2 mph 89% 0 in 0.00 W/m2
23:34 69.2 °F 65.8 °F 29.98 in ESE 5 mph 1.4 mph 89% 0 in 0.00 W/m2
23:39 69.2 °F 65.8 °F 29.98 in ESE 4.6 mph 2.1 mph 89% 0 in 0.00 W/m2
23:44 69.1 °F 65.7 °F 29.98 in SE 5 mph 3 mph 89% 0 in 0.00 W/m2
23:49 69 °F 65.6 °F 29.98 in SE 3.5 mph   89% 0 in 0.00 W/m2
23:54 69 °F 65.6 °F 29.99 in SE 4 mph 2.5 mph 89% 0 in 0.00 W/m2
23:59 68.9 °F 65.5 °F 29.99 in SSE 5.8 mph 3.6 mph 89% 0 in 0.00 W/m2
Bourbonnais, Illinois, USA
Compliments of Weather Underground - 2 mb